createdAt,value
2024-03-07T00:03:19.001Z,4.20
2024-03-07T00:08:24.195Z,4.20
2024-03-07T00:13:29.405Z,4.20
2024-03-07T00:18:35.822Z,4.20
2024-03-07T00:23:41.195Z,4.30
2024-03-07T00:28:46.502Z,4.30
2024-03-07T00:34:03.017Z,4.20
2024-03-07T00:38:58.632Z,4.10
2024-03-07T00:44:05.137Z,4.00
2024-03-07T00:49:10.348Z,3.90
2024-03-07T00:54:15.578Z,3.80
2024-03-07T00:59:21.129Z,3.70
2024-03-07T01:04:28.126Z,3.70
2024-03-07T01:09:33.303Z,3.60
2024-03-07T01:14:38.530Z,3.60
2024-03-07T01:19:44.547Z,3.60
2024-03-07T01:24:51.648Z,3.40
2024-03-07T01:29:57.014Z,3.40
2024-03-07T01:35:02.522Z,3.50
2024-03-07T01:40:10.464Z,3.40
2024-03-07T01:45:15.992Z,3.40
2024-03-07T01:50:21.212Z,3.30
2024-03-07T01:55:26.376Z,3.40
2024-03-07T02:00:31.517Z,3.40
2024-03-07T02:05:37.437Z,3.40
2024-03-07T02:10:43.144Z,3.40
2024-03-07T02:15:49.047Z,3.40
2024-03-07T02:20:56.046Z,3.50
2024-03-07T02:26:01.468Z,3.30
2024-03-07T02:31:06.884Z,3.20
2024-03-07T02:36:12.314Z,3.10
2024-03-07T02:41:17.513Z,3.20
2024-03-07T02:46:22.906Z,3.20
2024-03-07T02:51:28.203Z,3.20
2024-03-07T02:56:33.772Z,3.30
2024-03-07T03:01:39.083Z,3.30
2024-03-07T03:06:44.289Z,3.30
2024-03-07T03:11:49.733Z,3.30
2024-03-07T03:16:55.061Z,3.30
2024-03-07T03:22:00.396Z,3.10
2024-03-07T03:27:06.599Z,3.10
2024-03-07T03:32:12.157Z,3.10
2024-03-07T03:37:18.414Z,3.00
2024-03-07T03:42:24.577Z,3.00
2024-03-07T03:47:30.977Z,3.00
2024-03-07T03:52:36.957Z,3.00
2024-03-07T03:57:43.820Z,2.90
2024-03-07T04:02:50.639Z,2.90
2024-03-07T04:07:57.691Z,2.80
2024-03-07T04:13:04.584Z,2.70
2024-03-07T04:18:10.273Z,2.70
2024-03-07T04:23:15.690Z,2.60
2024-03-07T04:28:21.670Z,2.50
2024-03-07T04:33:28.194Z,2.50
2024-03-07T04:38:33.611Z,2.40
2024-03-07T04:43:38.940Z,2.40
2024-03-07T04:48:44.178Z,2.40
2024-03-07T04:53:49.461Z,2.30
2024-03-07T04:58:55.065Z,2.30
2024-03-07T05:04:03.007Z,2.20
2024-03-07T05:09:09.935Z,2.20
2024-03-07T05:14:17.661Z,2.20
2024-03-07T05:19:23.067Z,2.10
2024-03-07T05:24:28.688Z,2.00
2024-03-07T05:29:33.903Z,1.90
2024-03-07T05:34:41.011Z,2.00
2024-03-07T05:39:46.503Z,1.90
2024-03-07T05:44:51.952Z,2.00
2024-03-07T05:49:57.601Z,2.10
2024-03-07T05:55:02.787Z,2.10
2024-03-07T06:00:11.207Z,2.20
2024-03-07T06:05:17.326Z,2.40
2024-03-07T06:10:25.032Z,2.50
2024-03-07T06:15:30.295Z,2.50
2024-03-07T06:20:36.916Z,2.50
2024-03-07T06:25:48.940Z,2.60
2024-03-07T06:30:55.502Z,2.50
2024-03-07T06:36:02.268Z,2.60
2024-03-07T06:41:10.584Z,2.50
2024-03-07T06:46:17.183Z,2.60
2024-03-07T06:51:23.668Z,2.50
2024-03-07T06:56:29.052Z,2.50
2024-03-07T07:01:35.916Z,2.40
2024-03-07T07:06:42.777Z,2.40
2024-03-07T07:11:48.766Z,2.40
2024-03-07T07:16:54.229Z,2.50
2024-03-07T07:21:59.586Z,2.60
2024-03-07T07:27:05.007Z,2.70
2024-03-07T07:32:12.196Z,2.70
2024-03-07T07:37:17.843Z,2.80
2024-03-07T07:42:23.180Z,2.90
2024-03-07T07:47:29.029Z,2.90
2024-03-07T08:08:15.386Z,3.30
2024-03-07T08:18:37.552Z,3.40
2024-03-07T08:23:43.729Z,3.20
2024-03-07T08:28:49.168Z,3.30
2024-03-07T08:33:55.204Z,3.30
2024-03-07T08:39:00.809Z,3.40
2024-03-07T08:44:06.186Z,3.40
2024-03-07T08:59:51.342Z,3.60
2024-03-07T09:04:57.746Z,3.70
2024-03-07T09:10:03.228Z,3.90
2024-03-07T09:15:11.482Z,4.00
2024-03-07T09:20:17.294Z,4.10
2024-03-07T09:25:22.777Z,4.10
2024-03-07T09:30:29.231Z,4.10
2024-03-07T09:35:34.556Z,4.20
2024-03-07T09:40:40.065Z,4.30
2024-03-07T09:45:48.756Z,4.40
2024-03-07T09:50:54.791Z,4.50
2024-03-07T09:56:00.435Z,4.50
2024-03-07T10:06:23.418Z,4.70
2024-03-07T10:11:29.024Z,4.70
2024-03-07T10:16:34.409Z,4.90
2024-03-07T10:21:39.478Z,4.90
2024-03-07T10:26:47.114Z,5.00
2024-03-07T10:37:17.551Z,5.10
2024-03-07T10:42:25.241Z,5.20
2024-03-07T10:47:31.592Z,5.20
2024-03-07T10:52:40.375Z,5.10
2024-03-07T11:03:03.441Z,5.30
2024-03-07T11:08:11.480Z,5.30
2024-03-07T11:13:18.589Z,5.40
2024-03-07T11:18:23.866Z,5.40
2024-03-07T11:34:20.255Z,5.70
2024-03-07T11:39:45.707Z,5.70
2024-03-07T11:44:52.595Z,5.50
2024-03-07T11:49:59.354Z,5.70
2024-03-07T11:55:06.322Z,5.80
2024-03-07T12:00:16.458Z,5.90
2024-03-07T12:05:21.957Z,6.00
2024-03-07T12:10:27.443Z,6.00
2024-03-07T12:15:33.291Z,6.30
2024-03-07T12:20:42.169Z,6.40
2024-03-07T12:25:48.125Z,6.40
2024-03-07T12:30:55.736Z,6.40
2024-03-07T12:36:04.373Z,6.60
2024-03-07T12:41:16.141Z,6.40
2024-03-07T12:46:22.011Z,6.40
2024-03-07T12:51:27.189Z,6.40
2024-03-07T12:56:33.896Z,6.40
2024-03-07T13:01:41.010Z,6.20
2024-03-07T13:06:48.108Z,6.10
2024-03-07T13:11:53.216Z,6.20
2024-03-07T13:17:00.029Z,6.20
2024-03-07T13:22:07.271Z,6.00
2024-03-07T13:27:13.039Z,6.10
2024-03-07T13:32:18.341Z,6.00
2024-03-07T13:37:23.711Z,5.80
2024-03-07T13:42:28.754Z,5.60
2024-03-07T13:47:33.960Z,5.40
2024-03-07T13:52:40.814Z,5.30
2024-03-07T13:57:49.499Z,5.30
2024-03-07T14:03:24.352Z,5.40
2024-03-07T14:09:00.996Z,5.30
2024-03-07T14:14:26.494Z,5.30
2024-03-07T14:25:55.867Z,5.20
2024-03-07T14:31:01.033Z,5.10
2024-03-07T14:41:26.999Z,4.80
2024-03-07T15:02:31.780Z,4.70
2024-03-07T15:07:36.951Z,4.60
2024-03-07T15:18:05.169Z,4.50
2024-03-07T15:33:35.908Z,4.40
2024-03-07T15:38:41.245Z,4.30
2024-03-07T15:43:46.791Z,4.30
2024-03-07T15:48:53.291Z,4.40
2024-03-07T15:53:59.245Z,4.40
2024-03-07T16:04:35.527Z,4.20
2024-03-07T16:14:57.638Z,4.10
2024-03-07T16:20:02.922Z,3.90
2024-03-07T16:30:28.098Z,4.00
2024-03-07T16:35:33.920Z,4.00
2024-03-07T16:40:42.948Z,4.00
2024-03-07T16:45:47.534Z,4.10
2024-03-07T16:50:54.535Z,4.00
2024-03-07T16:55:59.671Z,3.90
2024-03-07T17:01:07.414Z,3.70
2024-03-07T17:06:12.582Z,3.70
2024-03-07T17:11:17.860Z,3.60
2024-03-07T17:16:24.370Z,3.50
2024-03-07T17:21:29.443Z,3.30
2024-03-07T17:26:35.280Z,3.30
2024-03-07T17:31:40.585Z,3.20
2024-03-07T17:36:47.995Z,3.20
2024-03-07T17:41:53.206Z,3.10
2024-03-07T17:46:58.429Z,3.00
2024-03-07T17:52:03.781Z,3.00
2024-03-07T17:57:09.047Z,3.00
2024-03-07T18:02:15.748Z,2.90
2024-03-07T18:07:22.753Z,3.00
2024-03-07T18:12:28.772Z,2.90
2024-03-07T18:17:35.204Z,2.70
2024-03-07T18:22:43.536Z,2.70
2024-03-07T18:27:48.702Z,2.60
2024-03-07T18:32:54.552Z,2.60
2024-03-07T18:37:59.934Z,2.50
2024-03-07T18:43:08.499Z,2.40
2024-03-07T18:48:15.621Z,2.50
2024-03-07T18:53:22.626Z,2.40
2024-03-07T18:58:27.781Z,2.30
2024-03-07T19:03:32.915Z,2.30
2024-03-07T19:08:38.159Z,2.20
2024-03-07T19:13:43.739Z,2.30
2024-03-07T19:18:48.800Z,2.40
2024-03-07T19:23:54.324Z,2.30
2024-03-07T19:29:00.221Z,2.30
2024-03-07T19:34:07.172Z,2.20
2024-03-07T19:39:14.048Z,2.20
2024-03-07T19:44:19.829Z,2.30
2024-03-07T19:49:26.016Z,2.20
2024-03-07T19:54:31.872Z,2.10
2024-03-07T19:59:36.900Z,2.10
2024-03-07T20:04:43.837Z,2.10
2024-03-07T20:09:49.231Z,2.20
2024-03-07T20:14:54.274Z,2.20
2024-03-07T20:19:59.470Z,2.00
2024-03-07T20:25:06.697Z,1.90
2024-03-07T20:30:15.549Z,1.90
2024-03-07T20:35:21.665Z,1.90
2024-03-07T20:40:27.202Z,1.80
2024-03-07T20:45:34.059Z,2.40
2024-03-07T20:50:40.943Z,2.10
2024-03-07T20:55:47.124Z,1.90
2024-03-07T21:00:53.448Z,1.70
2024-03-07T21:05:59.680Z,1.70
2024-03-07T21:11:06.817Z,1.60
2024-03-07T21:16:12.856Z,1.60
2024-03-07T21:21:18.148Z,1.60
2024-03-07T21:26:23.364Z,1.60
2024-03-07T21:31:28.686Z,1.50
2024-03-07T21:36:33.752Z,1.50
2024-03-07T21:41:38.780Z,1.50
2024-03-07T21:46:44.508Z,1.40
2024-03-07T21:51:50.277Z,1.50
2024-03-07T21:56:55.325Z,1.50
2024-03-07T22:02:00.944Z,1.40
2024-03-07T22:07:06.401Z,1.40
2024-03-07T22:12:11.559Z,1.30
2024-03-07T22:17:17.589Z,1.40
2024-03-07T22:22:22.600Z,1.30
2024-03-07T22:27:28.818Z,1.30
2024-03-07T22:32:34.056Z,1.40
2024-03-07T22:37:39.412Z,1.40
2024-03-07T22:42:45.281Z,1.40
2024-03-07T22:47:52.657Z,1.40
2024-03-07T22:52:58.149Z,1.40
2024-03-07T22:58:04.091Z,1.30
2024-03-07T23:03:09.179Z,1.30
2024-03-07T23:08:14.762Z,1.20
2024-03-07T23:13:20.035Z,1.20
2024-03-07T23:18:25.720Z,1.10
2024-03-07T23:23:30.861Z,1.10
2024-03-07T23:28:37.066Z,1.10
2024-03-07T23:33:42.887Z,1.10
2024-03-07T23:38:48.453Z,1.10
2024-03-07T23:43:54.511Z,1.10
2024-03-07T23:48:59.880Z,1.10
2024-03-07T23:54:06.212Z,1.00
2024-03-07T23:59:11.509Z,1.00
